sensor_id;sensor_type;location;lat;lon;timestamp;pressure;altitude;pressure_sealevel;temperature;humidity
75656;BME280;64252;51.094;13.714;2024-03-02T00:00:20;99335.00;;;18.33;50.77
75656;BME280;64252;51.094;13.714;2024-03-02T00:02:48;99333.28;;;18.66;49.91
75656;BME280;64252;51.094;13.714;2024-03-02T00:05:16;99333.81;;;18.74;49.96
75656;BME280;64252;51.094;13.714;2024-03-02T00:07:43;99328.88;;;18.43;50.43
75656;BME280;64252;51.094;13.714;2024-03-02T00:10:10;99328.19;;;19.01;49.08
75656;BME280;64252;51.094;13.714;2024-03-02T00:12:37;99330.47;;;19.24;48.43
75656;BME280;64252;51.094;13.714;2024-03-02T00:15:05;99325.09;;;18.77;49.40
75656;BME280;64252;51.094;13.714;2024-03-02T00:17:32;99321.03;;;18.57;50.00
75656;BME280;64252;51.094;13.714;2024-03-02T00:19:58;99322.72;;;18.23;51.06
75656;BME280;64252;51.094;13.714;2024-03-02T00:22:23;99327.41;;;18.39;50.57
75656;BME280;64252;51.094;13.714;2024-03-02T00:24:49;99314.69;;;18.62;50.32
75656;BME280;64252;51.094;13.714;2024-03-02T00:27:15;99316.75;;;19.01;49.30
75656;BME280;64252;51.094;13.714;2024-03-02T00:29:43;99319.72;;;18.98;49.27
75656;BME280;64252;51.094;13.714;2024-03-02T00:32:12;99325.50;;;18.36;50.87
75656;BME280;64252;51.094;13.714;2024-03-02T00:34:38;99318.53;;;18.68;50.43
75656;BME280;64252;51.094;13.714;2024-03-02T00:37:04;99317.94;;;18.73;50.05
75656;BME280;64252;51.094;13.714;2024-03-02T00:39:30;99313.38;;;18.54;50.52
75656;BME280;64252;51.094;13.714;2024-03-02T00:41:55;99318.53;;;18.68;50.31
75656;BME280;64252;51.094;13.714;2024-03-02T00:44:25;99319.59;;;18.92;49.95
75656;BME280;64252;51.094;13.714;2024-03-02T00:46:51;99317.72;;;19.16;49.40
75656;BME280;64252;51.094;13.714;2024-03-02T00:49:25;99325.84;;;19.27;49.07
75656;BME280;64252;51.094;13.714;2024-03-02T00:51:54;99328.56;;;19.30;48.92
75656;BME280;64252;51.094;13.714;2024-03-02T00:54:21;99330.91;;;19.14;49.04
75656;BME280;64252;51.094;13.714;2024-03-02T00:56:48;99327.28;;;19.22;48.97
75656;BME280;64252;51.094;13.714;2024-03-02T00:59:14;99327.63;;;19.34;48.86
75656;BME280;64252;51.094;13.714;2024-03-02T01:01:40;99321.91;;;19.43;48.47
75656;BME280;64252;51.094;13.714;2024-03-02T01:04:05;99329.25;;;19.44;48.55
75656;BME280;64252;51.094;13.714;2024-03-02T01:06:31;99334.63;;;19.42;48.62
75656;BME280;64252;51.094;13.714;2024-03-02T01:08:56;99324.91;;;19.21;49.00
75656;BME280;64252;51.094;13.714;2024-03-02T01:11:22;99322.81;;;19.30;48.56
75656;BME280;64252;51.094;13.714;2024-03-02T01:13:48;99330.88;;;18.96;49.63
75656;BME280;64252;51.094;13.714;2024-03-02T01:16:14;99328.78;;;18.87;49.96
75656;BME280;64252;51.094;13.714;2024-03-02T01:18:41;99314.78;;;18.89;49.93
75656;BME280;64252;51.094;13.714;2024-03-02T01:21:06;99317.41;;;18.65;50.42
75656;BME280;64252;51.094;13.714;2024-03-02T01:23:33;99317.78;;;18.76;50.14
75656;BME280;64252;51.094;13.714;2024-03-02T01:25:59;99307.72;;;18.63;50.60
75656;BME280;64252;51.094;13.714;2024-03-02T01:28:24;99306.91;;;18.31;51.51
75656;BME280;64252;51.094;13.714;2024-03-02T01:30:50;99306.13;;;18.62;50.70
75656;BME280;64252;51.094;13.714;2024-03-02T01:33:16;99303.56;;;18.55;51.16
75656;BME280;64252;51.094;13.714;2024-03-02T01:35:42;99319.28;;;18.99;49.92
75656;BME280;64252;51.094;13.714;2024-03-02T01:38:07;99316.38;;;18.90;50.17
75656;BME280;64252;51.094;13.714;2024-03-02T01:40:34;99316.75;;;19.01;49.88
75656;BME280;64252;51.094;13.714;2024-03-02T01:43:00;99323.06;;;18.87;50.02
75656;BME280;64252;51.094;13.714;2024-03-02T01:45:26;99316.47;;;18.68;50.33
75656;BME280;64252;51.094;13.714;2024-03-02T01:47:52;99321.16;;;18.53;51.20
75656;BME280;64252;51.094;13.714;2024-03-02T01:50:28;99312.44;;;18.57;50.99
75656;BME280;64252;51.094;13.714;2024-03-02T01:52:55;99316.22;;;18.94;50.29
75656;BME280;64252;51.094;13.714;2024-03-02T01:55:21;99319.78;;;18.67;50.65
75656;BME280;64252;51.094;13.714;2024-03-02T01:57:48;99317.38;;;19.05;49.93
75656;BME280;64252;51.094;13.714;2024-03-02T02:00:14;99305.97;;;19.23;49.51
75656;BME280;64252;51.094;13.714;2024-03-02T02:02:40;99322.06;;;19.30;49.31
75656;BME280;64252;51.094;13.714;2024-03-02T02:05:06;99304.34;;;19.13;49.37
75656;BME280;64252;51.094;13.714;2024-03-02T02:07:32;99312.25;;;18.91;50.06
75656;BME280;64252;51.094;13.714;2024-03-02T02:09:59;99306.81;;;18.84;50.32
75656;BME280;64252;51.094;13.714;2024-03-02T02:12:25;99306.25;;;19.16;49.78
75656;BME280;64252;51.094;13.714;2024-03-02T02:14:50;99299.63;;;19.19;49.55
75656;BME280;64252;51.094;13.714;2024-03-02T02:17:16;99295.50;;;19.20;49.54
75656;BME280;64252;51.094;13.714;2024-03-02T02:19:42;99289.56;;;19.06;49.68
75656;BME280;64252;51.094;13.714;2024-03-02T02:22:09;99293.88;;;19.10;49.80
75656;BME280;64252;51.094;13.714;2024-03-02T02:24:34;99292.94;;;19.22;49.60
75656;BME280;64252;51.094;13.714;2024-03-02T02:27:00;99299.00;;;19.34;49.19
75656;BME280;64252;51.094;13.714;2024-03-02T02:29:25;99297.41;;;19.33;49.01
75656;BME280;64252;51.094;13.714;2024-03-02T02:31:51;99289.69;;;19.02;49.53
75656;BME280;64252;51.094;13.714;2024-03-02T02:34:17;99296.09;;;19.06;49.89
75656;BME280;64252;51.094;13.714;2024-03-02T02:36:42;99302.66;;;19.34;49.24
75656;BME280;64252;51.094;13.714;2024-03-02T02:39:11;99303.50;;;19.44;48.89
75656;BME280;64252;51.094;13.714;2024-03-02T02:41:37;99306.63;;;19.27;49.10
75656;BME280;64252;51.094;13.714;2024-03-02T02:44:04;99301.88;;;19.43;48.83
75656;BME280;64252;51.094;13.714;2024-03-02T02:46:29;99306.75;;;18.66;50.91
75656;BME280;64252;51.094;13.714;2024-03-02T02:48:55;99304.66;;;18.97;50.02
75656;BME280;64252;51.094;13.714;2024-03-02T02:51:20;99300.72;;;18.64;50.89
75656;BME280;64252;51.094;13.714;2024-03-02T02:53:46;99303.56;;;19.22;49.73
75656;BME280;64252;51.094;13.714;2024-03-02T02:56:11;99297.03;;;19.03;49.94
75656;BME280;64252;51.094;13.714;2024-03-02T02:58:40;99295.84;;;18.73;50.46
75656;BME280;64252;51.094;13.714;2024-03-02T03:01:06;99295.44;;;18.53;51.22
75656;BME280;64252;51.094;13.714;2024-03-02T03:03:31;99290.31;;;18.48;51.43
75656;BME280;64252;51.094;13.714;2024-03-02T03:05:57;99293.22;;;18.57;51.11
75656;BME280;64252;51.094;13.714;2024-03-02T03:08:22;99289.06;;;18.98;50.22
75656;BME280;64252;51.094;13.714;2024-03-02T03:10:49;99294.28;;;18.91;50.11
75656;BME280;64252;51.094;13.714;2024-03-02T03:13:15;99289.69;;;19.02;50.00
75656;BME280;64252;51.094;13.714;2024-03-02T03:15:40;99280.34;;;19.02;50.10
75656;BME280;64252;51.094;13.714;2024-03-02T03:18:06;99285.44;;;18.58;51.03
75656;BME280;64252;51.094;13.714;2024-03-02T03:20:33;99283.69;;;19.00;49.99
75656;BME280;64252;51.094;13.714;2024-03-02T03:22:59;99293.50;;;18.90;50.16
75656;BME280;64252;51.094;13.714;2024-03-02T03:25:25;99289.38;;;18.91;50.26
75656;BME280;64252;51.094;13.714;2024-03-02T03:27:50;99290.06;;;19.13;49.59
75656;BME280;64252;51.094;13.714;2024-03-02T03:30:19;99293.25;;;19.24;49.46
75656;BME280;64252;51.094;13.714;2024-03-02T03:32:44;99280.50;;;19.07;49.69
75656;BME280;64252;51.094;13.714;2024-03-02T03:35:10;99283.22;;;19.02;49.88
75656;BME280;64252;51.094;13.714;2024-03-02T03:37:37;99292.88;;;18.95;49.97
75656;BME280;64252;51.094;13.714;2024-03-02T03:40:03;99294.66;;;18.62;50.90
75656;BME280;64252;51.094;13.714;2024-03-02T03:42:37;99296.59;;;18.65;51.03
75656;BME280;64252;51.094;13.714;2024-03-02T03:45:04;99288.81;;;18.65;51.09
75656;BME280;64252;51.094;13.714;2024-03-02T03:47:32;99286.03;;;18.53;51.44
75656;BME280;64252;51.094;13.714;2024-03-02T03:49:58;99281.06;;;18.13;52.29
75656;BME280;64252;51.094;13.714;2024-03-02T03:52:24;99281.44;;;18.24;52.03
75656;BME280;64252;51.094;13.714;2024-03-02T03:54:49;99282.06;;;18.19;52.20
75656;BME280;64252;51.094;13.714;2024-03-02T03:57:15;99278.81;;;18.70;50.71
75656;BME280;64252;51.094;13.714;2024-03-02T03:59:41;99279.53;;;18.21;52.03
75656;BME280;64252;51.094;13.714;2024-03-02T04:02:07;99276.22;;;18.54;50.68
75656;BME280;64252;51.094;13.714;2024-03-02T04:04:33;99270.94;;;18.83;50.03
75656;BME280;64252;51.094;13.714;2024-03-02T04:06:59;99276.66;;;18.83;50.18
75656;BME280;64252;51.094;13.714;2024-03-02T04:09:24;99279.16;;;18.72;50.33
75656;BME280;64252;51.094;13.714;2024-03-02T04:11:50;99280.41;;;18.71;50.38
75656;BME280;64252;51.094;13.714;2024-03-02T04:14:16;99298.56;;;18.86;50.23
75656;BME280;64252;51.094;13.714;2024-03-02T04:16:42;99295.91;;;18.92;49.83
75656;BME280;64252;51.094;13.714;2024-03-02T04:19:07;99304.94;;;18.90;49.71
75656;BME280;64252;51.094;13.714;2024-03-02T04:21:33;99306.59;;;18.69;50.30
75656;BME280;64252;51.094;13.714;2024-03-02T04:23:58;99302.53;;;18.89;50.13
75656;BME280;64252;51.094;13.714;2024-03-02T04:26:27;99291.31;;;19.03;49.85
75656;BME280;64252;51.094;13.714;2024-03-02T04:28:53;99299.44;;;18.65;50.76
75656;BME280;64252;51.094;13.714;2024-03-02T04:31:19;99297.28;;;18.78;50.45
75656;BME280;64252;51.094;13.714;2024-03-02T04:33:45;99297.34;;;18.96;49.86
75656;BME280;64252;51.094;13.714;2024-03-02T04:36:11;99302.03;;;18.72;50.48
75656;BME280;64252;51.094;13.714;2024-03-02T04:38:37;99305.44;;;18.27;51.49
75656;BME280;64252;51.094;13.714;2024-03-02T04:41:04;99310.91;;;18.12;52.06
75656;BME280;64252;51.094;13.714;2024-03-02T04:43:30;99317.41;;;18.65;51.04
75656;BME280;64252;51.094;13.714;2024-03-02T04:45:58;99318.03;;;18.69;50.80
75656;BME280;64252;51.094;13.714;2024-03-02T04:48:23;99323.56;;;19.04;49.97
75656;BME280;64252;51.094;13.714;2024-03-02T04:50:49;99325.22;;;19.23;49.46
75656;BME280;64252;51.094;13.714;2024-03-02T04:53:14;99323.63;;;19.22;49.15
75656;BME280;64252;51.094;13.714;2024-03-02T04:55:40;99330.59;;;18.63;50.51
75656;BME280;64252;51.094;13.714;2024-03-02T04:58:05;99328.91;;;18.83;50.08
75656;BME280;64252;51.094;13.714;2024-03-02T05:00:34;99331.72;;;19.14;49.60
75656;BME280;64252;51.094;13.714;2024-03-02T05:03:00;99329.63;;;18.66;50.64
75656;BME280;64252;51.094;13.714;2024-03-02T05:05:26;99344.41;;;19.04;49.92
75656;BME280;64252;51.094;13.714;2024-03-02T05:07:53;99339.59;;;18.83;50.33
75656;BME280;64252;51.094;13.714;2024-03-02T05:10:18;99342.25;;;18.77;50.28
75656;BME280;64252;51.094;13.714;2024-03-02T05:12:44;99345.88;;;18.69;50.62
75656;BME280;64252;51.094;13.714;2024-03-02T05:15:11;99351.56;;;19.09;49.85
75656;BME280;64252;51.094;13.714;2024-03-02T05:17:38;99359.25;;;18.81;50.41
75656;BME280;64252;51.094;13.714;2024-03-02T05:20:05;99365.38;;;19.01;50.02
75656;BME280;64252;51.094;13.714;2024-03-02T05:22:31;99358.34;;;18.93;50.23
75656;BME280;64252;51.094;13.714;2024-03-02T05:24:56;99364.59;;;18.70;50.61
75656;BME280;64252;51.094;13.714;2024-03-02T05:27:22;99365.22;;;18.96;50.04
75656;BME280;64252;51.094;13.714;2024-03-02T05:29:48;99362.81;;;18.94;49.84
75656;BME280;64252;51.094;13.714;2024-03-02T05:32:13;99370.47;;;18.97;50.11
75656;BME280;64252;51.094;13.714;2024-03-02T05:34:39;99374.31;;;19.12;49.85
75656;BME280;64252;51.094;13.714;2024-03-02T05:37:04;99362.91;;;19.30;49.52
75656;BME280;64252;51.094;13.714;2024-03-02T05:39:30;99365.59;;;18.76;50.27
75656;BME280;64252;51.094;13.714;2024-03-02T05:41:55;99372.50;;;18.57;50.86
75656;BME280;64252;51.094;13.714;2024-03-02T05:44:21;99381.88;;;18.35;51.57
75656;BME280;64252;51.094;13.714;2024-03-02T05:46:47;99383.13;;;18.56;51.08
75656;BME280;64252;51.094;13.714;2024-03-02T05:49:13;99377.22;;;18.81;50.41
75656;BME280;64252;51.094;13.714;2024-03-02T05:51:39;99393.53;;;18.72;50.58
75656;BME280;64252;51.094;13.714;2024-03-02T05:54:04;99387.28;;;18.95;50.05
75656;BME280;64252;51.094;13.714;2024-03-02T05:56:30;99392.28;;;19.13;49.71
75656;BME280;64252;51.094;13.714;2024-03-02T05:58:55;99393.44;;;19.24;49.27
75656;BME280;64252;51.094;13.714;2024-03-02T06:01:40;99402.59;;;19.01;49.66
75656;BME280;64252;51.094;13.714;2024-03-02T06:04:06;99404.72;;;18.88;50.38
75656;BME280;64252;51.094;13.714;2024-03-02T06:06:33;99408.28;;;18.92;50.15
75656;BME280;64252;51.094;13.714;2024-03-02T06:09:02;99413.28;;;18.79;50.43
75656;BME280;64252;51.094;13.714;2024-03-02T06:11:37;99412.28;;;18.51;51.17
75656;BME280;64252;51.094;13.714;2024-03-02T06:14:03;99418.34;;;18.75;50.73
75656;BME280;64252;51.094;13.714;2024-03-02T06:16:31;99420.59;;;18.80;50.39
75656;BME280;64252;51.094;13.714;2024-03-02T06:18:57;99421.47;;;18.99;49.95
75656;BME280;64252;51.094;13.714;2024-03-02T06:21:27;99425.84;;;19.21;49.55
75656;BME280;64252;51.094;13.714;2024-03-02T06:23:53;99418.69;;;19.17;49.19
75656;BME280;64252;51.094;13.714;2024-03-02T06:26:19;99435.13;;;19.25;49.30
75656;BME280;64252;51.094;13.714;2024-03-02T06:28:45;99429.88;;;18.93;49.96
75656;BME280;64252;51.094;13.714;2024-03-02T06:31:11;99428.41;;;19.19;49.49
75656;BME280;64252;51.094;13.714;2024-03-02T06:33:37;99424.91;;;19.15;49.48
75656;BME280;64252;51.094;13.714;2024-03-02T06:36:02;99426.91;;;18.75;50.32
75656;BME280;64252;51.094;13.714;2024-03-02T06:38:28;99426.16;;;18.83;50.39
75656;BME280;64252;51.094;13.714;2024-03-02T06:40:53;99432.03;;;18.80;50.48
75656;BME280;64252;51.094;13.714;2024-03-02T06:43:21;99429.13;;;18.71;50.72
75656;BME280;64252;51.094;13.714;2024-03-02T06:45:52;99437.41;;;18.69;50.86
75656;BME280;64252;51.094;13.714;2024-03-02T06:48:18;99430.31;;;19.22;49.87
75656;BME280;64252;51.094;13.714;2024-03-02T06:50:49;99441.69;;;19.35;49.26
75656;BME280;64252;51.094;13.714;2024-03-02T06:53:15;99446.66;;;19.44;49.00
75656;BME280;64252;51.094;13.714;2024-03-02T06:55:45;99450.38;;;19.32;48.89
75656;BME280;64252;51.094;13.714;2024-03-02T06:58:14;99450.31;;;19.13;49.60
75656;BME280;64252;51.094;13.714;2024-03-02T07:00:42;99461.63;;;19.17;49.57
75656;BME280;64252;51.094;13.714;2024-03-02T07:03:09;99454.78;;;19.14;49.70
75656;BME280;64252;51.094;13.714;2024-03-02T07:05:35;99453.59;;;19.34;49.14
75656;BME280;64252;51.094;13.714;2024-03-02T07:08:01;99465.47;;;19.54;48.80
75656;BME280;64252;51.094;13.714;2024-03-02T07:10:28;99464.50;;;19.48;49.08
75656;BME280;64252;51.094;13.714;2024-03-02T07:12:53;99471.50;;;19.56;48.87
75656;BME280;64252;51.094;13.714;2024-03-02T07:15:19;99468.34;;;19.63;48.55
75656;BME280;64252;51.094;13.714;2024-03-02T07:17:54;99470.25;;;19.66;48.61
75656;BME280;64252;51.094;13.714;2024-03-02T07:20:19;99471.69;;;19.30;49.23
75656;BME280;64252;51.094;13.714;2024-03-02T07:22:45;99470.84;;;19.52;48.85
75656;BME280;64252;51.094;13.714;2024-03-02T07:25:11;99474.53;;;19.61;48.74
75656;BME280;64252;51.094;13.714;2024-03-02T07:27:38;99483.13;;;19.61;48.68
75656;BME280;64252;51.094;13.714;2024-03-02T07:30:04;99478.50;;;19.64;48.59
75656;BME280;64252;51.094;13.714;2024-03-02T07:32:30;99481.22;;;19.58;49.02
75656;BME280;64252;51.094;13.714;2024-03-02T07:34:55;99477.53;;;19.49;49.12
75656;BME280;64252;51.094;13.714;2024-03-02T07:37:22;99475.66;;;19.64;49.04
75656;BME280;64252;51.094;13.714;2024-03-02T07:39:48;99479.22;;;19.77;48.79
75656;BME280;64252;51.094;13.714;2024-03-02T07:42:13;99473.47;;;19.77;48.56
75656;BME280;64252;51.094;13.714;2024-03-02T07:44:39;99483.03;;;19.83;48.45
75656;BME280;64252;51.094;13.714;2024-03-02T07:47:04;99487.50;;;19.84;48.31
75656;BME280;64252;51.094;13.714;2024-03-02T07:49:30;99491.00;;;19.88;48.34
75656;BME280;64252;51.094;13.714;2024-03-02T07:51:56;99495.94;;;19.97;48.15
75656;BME280;64252;51.094;13.714;2024-03-02T07:54:21;99500.84;;;19.87;48.30
75656;BME280;64252;51.094;13.714;2024-03-02T07:56:47;99499.41;;;19.83;48.77
75656;BME280;64252;51.094;13.714;2024-03-02T07:59:12;99509.16;;;19.94;48.46
75656;BME280;64252;51.094;13.714;2024-03-02T08:01:38;99499.59;;;19.97;48.11
75656;BME280;64252;51.094;13.714;2024-03-02T08:04:05;99511.38;;;19.90;48.47
75656;BME280;64252;51.094;13.714;2024-03-02T08:06:30;99508.69;;;19.96;48.50
75656;BME280;64252;51.094;13.714;2024-03-02T08:09:18;99516.13;;;19.84;48.63
75656;BME280;64252;51.094;13.714;2024-03-02T08:12:12;99506.81;;;19.53;49.09
75656;BME280;64252;51.094;13.714;2024-03-02T08:14:55;99511.56;;;19.47;49.55
75656;BME280;64252;51.094;13.714;2024-03-02T08:17:55;99515.78;;;19.73;48.75
75656;BME280;64252;51.094;13.714;2024-03-02T08:20:24;99514.69;;;19.80;48.51
75656;BME280;64252;51.094;13.714;2024-03-02T08:22:50;99511.31;;;19.63;49.18
75656;BME280;64252;51.094;13.714;2024-03-02T08:25:18;99515.22;;;19.96;48.26
75656;BME280;64252;51.094;13.714;2024-03-02T08:27:44;99527.66;;;20.21;47.58
75656;BME280;64252;51.094;13.714;2024-03-02T08:30:11;99517.97;;;19.60;48.48
75656;BME280;64252;51.094;13.714;2024-03-02T08:32:38;99526.09;;;20.20;47.40
75656;BME280;64252;51.094;13.714;2024-03-02T08:35:09;99528.34;;;19.66;48.12
75656;BME280;64252;51.094;13.714;2024-03-02T08:37:37;99525.44;;;20.15;47.28
75656;BME280;64252;51.094;13.714;2024-03-02T08:40:06;99537.34;;;19.47;48.80
75656;BME280;64252;51.094;13.714;2024-03-02T08:42:32;99539.72;;;19.88;47.90
75656;BME280;64252;51.094;13.714;2024-03-02T08:44:58;99545.50;;;20.25;46.91
75656;BME280;64252;51.094;13.714;2024-03-02T08:47:26;99543.19;;;20.32;46.63
75656;BME280;64252;51.094;13.714;2024-03-02T08:49:55;99542.53;;;20.74;45.86
75656;BME280;64252;51.094;13.714;2024-03-02T08:52:23;99544.78;;;20.70;46.08
75656;BME280;64252;51.094;13.714;2024-03-02T08:54:55;99546.53;;;20.76;45.44
75656;BME280;64252;51.094;13.714;2024-03-02T08:57:23;99545.38;;;20.92;45.09
75656;BME280;64252;51.094;13.714;2024-03-02T08:59:53;99543.59;;;21.22;45.50
75656;BME280;64252;51.094;13.714;2024-03-02T09:02:49;99537.56;;;21.01;44.69
75656;BME280;64252;51.094;13.714;2024-03-02T09:05:15;99534.03;;;21.16;44.15
75656;BME280;64252;51.094;13.714;2024-03-02T09:18:28;99537.06;;;22.67;40.51
75656;BME280;64252;51.094;13.714;2024-03-02T09:21:54;99544.41;;;23.07;40.14
75656;BME280;64252;51.094;13.714;2024-03-02T09:37:07;99554.59;;;22.55;40.42
75656;BME280;64252;51.094;13.714;2024-03-02T09:54:46;99559.59;;;22.93;40.50
75656;BME280;64252;51.094;13.714;2024-03-02T10:01:55;99551.00;;;22.21;40.82
75656;BME280;64252;51.094;13.714;2024-03-02T10:05:39;99553.03;;;21.04;43.53
75656;BME280;64252;51.094;13.714;2024-03-02T10:15:23;99542.00;;;21.21;43.41
75656;BME280;64252;51.094;13.714;2024-03-02T10:18:51;99551.59;;;21.18;43.71
75656;BME280;64252;51.094;13.714;2024-03-02T10:25:49;99547.00;;;21.53;42.51
75656;BME280;64252;51.094;13.714;2024-03-02T10:37:23;99521.25;;;22.87;39.84
75656;BME280;64252;51.094;13.714;2024-03-02T10:39:34;99530.09;;;23.12;39.63
75656;BME280;64252;51.094;13.714;2024-03-02T10:42:06;99520.44;;;22.71;39.67
75656;BME280;64252;51.094;13.714;2024-03-02T10:44:32;99519.50;;;22.27;40.38
75656;BME280;64252;51.094;13.714;2024-03-02T10:47:03;99513.66;;;21.88;41.09
75656;BME280;64252;51.094;13.714;2024-03-02T10:49:30;99516.91;;;21.72;40.89
75656;BME280;64252;51.094;13.714;2024-03-02T10:51:58;99505.03;;;21.88;41.47
75656;BME280;64252;51.094;13.714;2024-03-02T10:54:24;99504.03;;;21.92;41.08
75656;BME280;64252;51.094;13.714;2024-03-02T10:56:53;99496.00;;;21.39;41.78
75656;BME280;64252;51.094;13.714;2024-03-02T11:01:55;99502.06;;;22.07;41.50
75656;BME280;64252;51.094;13.714;2024-03-02T11:04:24;99496.91;;;21.54;41.02
75656;BME280;64252;51.094;13.714;2024-03-02T11:06:52;99501.25;;;22.68;39.24
75656;BME280;64252;51.094;13.714;2024-03-02T11:09:26;99497.03;;;22.79;38.37
75656;BME280;64252;51.094;13.714;2024-03-02T11:12:17;99500.41;;;23.21;38.14
75656;BME280;64252;51.094;13.714;2024-03-02T11:14:44;99502.19;;;23.33;38.36
75656;BME280;64252;51.094;13.714;2024-03-02T11:17:13;99491.88;;;22.97;38.40
75656;BME280;64252;51.094;13.714;2024-03-02T11:19:41;99501.56;;;22.70;39.98
75656;BME280;64252;51.094;13.714;2024-03-02T11:22:09;99492.38;;;23.75;37.58
75656;BME280;64252;51.094;13.714;2024-03-02T11:24:36;99502.69;;;22.49;38.99
75656;BME280;64252;51.094;13.714;2024-03-02T11:27:03;99489.72;;;23.71;37.43
75656;BME280;64252;51.094;13.714;2024-03-02T11:32:03;99498.91;;;23.11;38.68
75656;BME280;64252;51.094;13.714;2024-03-02T11:34:37;99502.50;;;23.35;38.36
75656;BME280;64252;51.094;13.714;2024-03-02T11:37:05;99509.31;;;22.79;39.20
75656;BME280;64252;51.094;13.714;2024-03-02T11:39:30;99501.28;;;23.91;36.12
75656;BME280;64252;51.094;13.714;2024-03-02T11:41:57;99490.25;;;23.55;37.23
75656;BME280;64252;51.094;13.714;2024-03-02T11:44:26;99490.09;;;24.34;35.70
75656;BME280;64252;51.094;13.714;2024-03-02T11:46:58;99485.69;;;24.18;35.71
75656;BME280;64252;51.094;13.714;2024-03-02T11:49:41;99488.56;;;24.38;34.96
75656;BME280;64252;51.094;13.714;2024-03-02T11:52:09;99484.19;;;24.69;34.83
75656;BME280;64252;51.094;13.714;2024-03-02T11:54:40;99486.22;;;24.02;35.14
75656;BME280;64252;51.094;13.714;2024-03-02T11:57:20;99472.78;;;23.79;35.84
75656;BME280;64252;51.094;13.714;2024-03-02T11:59:48;99477.47;;;23.76;35.94
75656;BME280;64252;51.094;13.714;2024-03-02T12:02:16;99470.06;;;23.90;36.52
75656;BME280;64252;51.094;13.714;2024-03-02T12:04:51;99476.94;;;24.53;34.26
75656;BME280;64252;51.094;13.714;2024-03-02T12:07:22;99472.06;;;25.42;33.15
75656;BME280;64252;51.094;13.714;2024-03-02T12:10:00;99476.84;;;25.19;33.95
75656;BME280;64252;51.094;13.714;2024-03-02T12:12:26;99472.47;;;23.91;35.38
75656;BME280;64252;51.094;13.714;2024-03-02T12:14:52;99480.69;;;23.64;35.85
75656;BME280;64252;51.094;13.714;2024-03-02T12:17:21;99475.34;;;24.12;35.52
75656;BME280;64252;51.094;13.714;2024-03-02T12:19:46;99470.19;;;23.31;36.17
75656;BME280;64252;51.094;13.714;2024-03-02T12:22:12;99477.63;;;22.26;37.87
75656;BME280;64252;51.094;13.714;2024-03-02T12:24:38;99481.72;;;23.46;36.08
75656;BME280;64252;51.094;13.714;2024-03-02T12:27:05;99478.16;;;22.78;37.11
75656;BME280;64252;51.094;13.714;2024-03-02T12:29:35;99478.81;;;21.96;39.25
75656;BME280;64252;51.094;13.714;2024-03-02T12:32:00;99470.88;;;22.67;37.34
75656;BME280;64252;51.094;13.714;2024-03-02T12:34:27;99473.63;;;21.76;39.37
75656;BME280;64252;51.094;13.714;2024-03-02T12:36:53;99469.97;;;21.99;38.95
75656;BME280;64252;51.094;13.714;2024-03-02T12:39:19;99474.19;;;21.32;39.50
75656;BME280;64252;51.094;13.714;2024-03-02T12:41:46;99457.03;;;22.42;37.80
75656;BME280;64252;51.094;13.714;2024-03-02T12:44:12;99469.16;;;22.22;38.08
75656;BME280;64252;51.094;13.714;2024-03-02T12:46:37;99464.81;;;21.23;39.61
75656;BME280;64252;51.094;13.714;2024-03-02T12:49:11;99459.69;;;21.60;39.58
75656;BME280;64252;51.094;13.714;2024-03-02T12:51:38;99464.53;;;22.25;37.55
75656;BME280;64252;51.094;13.714;2024-03-02T12:54:09;99462.19;;;21.34;39.25
75656;BME280;64252;51.094;13.714;2024-03-02T12:56:38;99462.16;;;22.00;38.20
75656;BME280;64252;51.094;13.714;2024-03-02T12:59:04;99451.81;;;22.17;37.89
75656;BME280;64252;51.094;13.714;2024-03-02T13:01:30;99451.69;;;21.31;39.46
75656;BME280;64252;51.094;13.714;2024-03-02T13:03:57;99450.81;;;21.72;38.86
75656;BME280;64252;51.094;13.714;2024-03-02T13:06:25;99457.47;;;22.64;36.86
75656;BME280;64252;51.094;13.714;2024-03-02T13:08:54;99451.94;;;21.75;37.86
75656;BME280;64252;51.094;13.714;2024-03-02T13:11:21;99451.44;;;21.76;37.48
75656;BME280;64252;51.094;13.714;2024-03-02T13:13:48;99463.69;;;22.10;37.63
75656;BME280;64252;51.094;13.714;2024-03-02T13:16:13;99451.47;;;21.67;38.32
75656;BME280;64252;51.094;13.714;2024-03-02T13:18:41;99448.75;;;21.40;38.35
75656;BME280;64252;51.094;13.714;2024-03-02T13:21:10;99457.53;;;22.02;38.22
75656;BME280;64252;51.094;13.714;2024-03-02T13:23:35;99458.31;;;21.46;39.19
75656;BME280;64252;51.094;13.714;2024-03-02T13:26:01;99450.97;;;21.45;38.58
75656;BME280;64252;51.094;13.714;2024-03-02T13:28:27;99446.66;;;22.21;38.10
75656;BME280;64252;51.094;13.714;2024-03-02T13:30:53;99446.16;;;21.51;38.76
75656;BME280;64252;51.094;13.714;2024-03-02T13:33:18;99436.88;;;21.23;38.54
75656;BME280;64252;51.094;13.714;2024-03-02T13:35:51;99450.66;;;22.38;37.11
75656;BME280;64252;51.094;13.714;2024-03-02T13:38:18;99452.25;;;21.44;38.67
75656;BME280;64252;51.094;13.714;2024-03-02T13:40:44;99453.59;;;20.65;39.36
75656;BME280;64252;51.094;13.714;2024-03-02T13:43:11;99456.34;;;21.10;38.94
75656;BME280;64252;51.094;13.714;2024-03-02T13:45:37;99448.41;;;21.71;37.73
75656;BME280;64252;51.094;13.714;2024-03-02T13:48:03;99450.69;;;21.67;38.26
75656;BME280;64252;51.094;13.714;2024-03-02T13:50:29;99461.59;;;21.21;38.96
75656;BME280;64252;51.094;13.714;2024-03-02T13:52:55;99454.06;;;20.72;39.19
75656;BME280;64252;51.094;13.714;2024-03-02T13:55:21;99458.84;;;20.75;38.95
75656;BME280;64252;51.094;13.714;2024-03-02T13:57:47;99456.75;;;21.69;37.74
75656;BME280;64252;51.094;13.714;2024-03-02T14:00:14;99454.81;;;21.75;37.90
75656;BME280;64252;51.094;13.714;2024-03-02T14:02:41;99460.53;;;22.08;37.86